sensor_id;sensor_type;location;lat;lon;timestamp;P1;durP1;ratioP1;P2;durP2;ratioP2
56363;SDS011;42261;52.094;4.326;2022-08-03T00:01:33;9.05;;;2.50;;
56363;SDS011;42261;52.094;4.326;2022-08-03T00:04:18;6.50;;;1.50;;
56363;SDS011;42261;52.094;4.326;2022-08-03T00:07:02;10.45;;;1.65;;
56363;SDS011;42261;52.094;4.326;2022-08-03T00:09:46;8.02;;;1.77;;
56363;SDS011;42261;52.094;4.326;2022-08-03T00:12:30;10.20;;;1.90;;
56363;SDS011;42261;52.094;4.326;2022-08-03T00:15:15;10.32;;;1.40;;
56363;SDS011;42261;52.094;4.326;2022-08-03T00:17:59;12.40;;;1.73;;
56363;SDS011;42261;52.094;4.326;2022-08-03T00:21:02;9.00;;;2.08;;
56363;SDS011;42261;52.094;4.326;2022-08-03T00:24:06;10.82;;;1.80;;
56363;SDS011;42261;52.094;4.326;2022-08-03T00:26:51;9.48;;;1.38;;
56363;SDS011;42261;52.094;4.326;2022-08-03T00:29:36;6.25;;;1.50;;
56363;SDS011;42261;52.094;4.326;2022-08-03T00:32:20;11.27;;;1.83;;
56363;SDS011;42261;52.094;4.326;2022-08-03T00:35:04;8.50;;;2.58;;
56363;SDS011;42261;52.094;4.326;2022-08-03T00:37:49;9.10;;;1.80;;
56363;SDS011;42261;52.094;4.326;2022-08-03T00:40:33;6.05;;;1.88;;
56363;SDS011;42261;52.094;4.326;2022-08-03T00:43:18;6.07;;;1.60;;
56363;SDS011;42261;52.094;4.326;2022-08-03T00:46:02;5.82;;;1.42;;
56363;SDS011;42261;52.094;4.326;2022-08-03T00:48:47;8.77;;;2.17;;
56363;SDS011;42261;52.094;4.326;2022-08-03T00:51:34;10.35;;;2.10;;
56363;SDS011;42261;52.094;4.326;2022-08-03T00:54:19;11.70;;;1.80;;
56363;SDS011;42261;52.094;4.326;2022-08-03T00:57:22;18.08;;;2.22;;
56363;SDS011;42261;52.094;4.326;2022-08-03T01:00:07;9.15;;;2.33;;
56363;SDS011;42261;52.094;4.326;2022-08-03T01:02:52;11.15;;;2.38;;
56363;SDS011;42261;52.094;4.326;2022-08-03T01:05:39;9.90;;;1.45;;
56363;SDS011;42261;52.094;4.326;2022-08-03T01:08:47;7.00;;;1.88;;
56363;SDS011;42261;52.094;4.326;2022-08-03T01:11:47;8.00;;;2.47;;
56363;SDS011;42261;52.094;4.326;2022-08-03T01:14:38;7.75;;;1.60;;
56363;SDS011;42261;52.094;4.326;2022-08-03T01:17:36;10.85;;;2.00;;
56363;SDS011;42261;52.094;4.326;2022-08-03T01:20:28;10.65;;;1.85;;
56363;SDS011;42261;52.094;4.326;2022-08-03T01:29:56;11.00;;;2.38;;
56363;SDS011;42261;52.094;4.326;2022-08-03T01:36:09;8.07;;;3.08;;
56363;SDS011;42261;52.094;4.326;2022-08-03T01:38:58;10.38;;;2.13;;
56363;SDS011;42261;52.094;4.326;2022-08-03T01:41:52;11.20;;;2.00;;
56363;SDS011;42261;52.094;4.326;2022-08-03T01:44:42;11.02;;;2.05;;
56363;SDS011;42261;52.094;4.326;2022-08-03T01:47:28;10.70;;;1.77;;
56363;SDS011;42261;52.094;4.326;2022-08-03T01:50:13;11.63;;;2.97;;
56363;SDS011;42261;52.094;4.326;2022-08-03T01:52:58;9.32;;;2.15;;
56363;SDS011;42261;52.094;4.326;2022-08-03T01:55:46;9.30;;;1.75;;
56363;SDS011;42261;52.094;4.326;2022-08-03T01:58:32;11.25;;;2.15;;
56363;SDS011;42261;52.094;4.326;2022-08-03T02:01:19;13.88;;;1.90;;
56363;SDS011;42261;52.094;4.326;2022-08-03T02:04:04;7.45;;;1.95;;
56363;SDS011;42261;52.094;4.326;2022-08-03T02:06:49;13.75;;;2.50;;
56363;SDS011;42261;52.094;4.326;2022-08-03T02:09:35;11.20;;;2.40;;
56363;SDS011;42261;52.094;4.326;2022-08-03T02:12:21;12.07;;;2.13;;
56363;SDS011;42261;52.094;4.326;2022-08-03T02:15:07;9.63;;;2.15;;
56363;SDS011;42261;52.094;4.326;2022-08-03T02:17:52;9.77;;;2.40;;
56363;SDS011;42261;52.094;4.326;2022-08-03T02:20:37;11.40;;;2.20;;
56363;SDS011;42261;52.094;4.326;2022-08-03T02:23:25;7.13;;;1.80;;
56363;SDS011;42261;52.094;4.326;2022-08-03T02:26:10;11.10;;;2.50;;
56363;SDS011;42261;52.094;4.326;2022-08-03T02:28:59;13.55;;;2.00;;
56363;SDS011;42261;52.094;4.326;2022-08-03T02:31:46;11.00;;;2.38;;
56363;SDS011;42261;52.094;4.326;2022-08-03T02:34:32;16.92;;;2.50;;
56363;SDS011;42261;52.094;4.326;2022-08-03T02:37:20;19.23;;;2.33;;
56363;SDS011;42261;52.094;4.326;2022-08-03T02:40:08;8.73;;;1.88;;
56363;SDS011;42261;52.094;4.326;2022-08-03T02:42:54;9.63;;;2.05;;
56363;SDS011;42261;52.094;4.326;2022-08-03T02:48:28;5.57;;;1.63;;
56363;SDS011;42261;52.094;4.326;2022-08-03T02:51:13;11.30;;;2.03;;
56363;SDS011;42261;52.094;4.326;2022-08-03T02:53:59;9.20;;;2.30;;
56363;SDS011;42261;52.094;4.326;2022-08-03T02:56:46;12.90;;;2.08;;
56363;SDS011;42261;52.094;4.326;2022-08-03T02:59:31;12.50;;;2.42;;
56363;SDS011;42261;52.094;4.326;2022-08-03T03:02:15;10.05;;;2.30;;
56363;SDS011;42261;52.094;4.326;2022-08-03T03:05:01;10.15;;;1.92;;
56363;SDS011;42261;52.094;4.326;2022-08-03T03:07:46;8.40;;;2.38;;
56363;SDS011;42261;52.094;4.326;2022-08-03T03:10:30;8.43;;;2.25;;
56363;SDS011;42261;52.094;4.326;2022-08-03T03:13:14;9.50;;;2.42;;
56363;SDS011;42261;52.094;4.326;2022-08-03T03:15:59;10.88;;;2.50;;
56363;SDS011;42261;52.094;4.326;2022-08-03T03:18:44;12.30;;;3.10;;
56363;SDS011;42261;52.094;4.326;2022-08-03T03:21:29;11.63;;;2.00;;
56363;SDS011;42261;52.094;4.326;2022-08-03T03:24:13;6.28;;;2.13;;
56363;SDS011;42261;52.094;4.326;2022-08-03T03:26:59;10.63;;;1.95;;
56363;SDS011;42261;52.094;4.326;2022-08-03T03:29:43;13.85;;;2.33;;
56363;SDS011;42261;52.094;4.326;2022-08-03T03:32:47;11.30;;;2.95;;
56363;SDS011;42261;52.094;4.326;2022-08-03T03:35:51;7.95;;;1.80;;
56363;SDS011;42261;52.094;4.326;2022-08-03T03:38:54;10.27;;;2.30;;
56363;SDS011;42261;52.094;4.326;2022-08-03T03:41:38;13.55;;;2.22;;
56363;SDS011;42261;52.094;4.326;2022-08-03T03:44:30;16.23;;;2.22;;
56363;SDS011;42261;52.094;4.326;2022-08-03T03:47:14;8.38;;;2.40;;
56363;SDS011;42261;52.094;4.326;2022-08-03T03:49:58;10.02;;;1.98;;
56363;SDS011;42261;52.094;4.326;2022-08-03T03:52:42;9.73;;;2.97;;
56363;SDS011;42261;52.094;4.326;2022-08-03T03:55:26;11.45;;;1.92;;
56363;SDS011;42261;52.094;4.326;2022-08-03T03:58:11;10.68;;;2.58;;
56363;SDS011;42261;52.094;4.326;2022-08-03T04:00:55;6.53;;;2.25;;
56363;SDS011;42261;52.094;4.326;2022-08-03T04:03:40;9.80;;;2.20;;
56363;SDS011;42261;52.094;4.326;2022-08-03T04:06:24;7.20;;;1.80;;
56363;SDS011;42261;52.094;4.326;2022-08-03T04:09:27;6.30;;;1.80;;
56363;SDS011;42261;52.094;4.326;2022-08-03T04:12:30;11.32;;;2.80;;
56363;SDS011;42261;52.094;4.326;2022-08-03T04:15:14;9.23;;;1.98;;
56363;SDS011;42261;52.094;4.326;2022-08-03T04:17:59;8.00;;;2.15;;
56363;SDS011;42261;52.094;4.326;2022-08-03T04:20:45;7.20;;;1.98;;
56363;SDS011;42261;52.094;4.326;2022-08-03T04:23:32;10.10;;;2.72;;
56363;SDS011;42261;52.094;4.326;2022-08-03T04:26:19;8.32;;;2.30;;
56363;SDS011;42261;52.094;4.326;2022-08-03T04:29:05;9.10;;;2.70;;
56363;SDS011;42261;52.094;4.326;2022-08-03T04:31:50;9.82;;;2.58;;
56363;SDS011;42261;52.094;4.326;2022-08-03T04:34:56;12.60;;;2.45;;
56363;SDS011;42261;52.094;4.326;2022-08-03T04:37:41;10.27;;;2.25;;
56363;SDS011;42261;52.094;4.326;2022-08-03T04:40:32;9.07;;;2.42;;
56363;SDS011;42261;52.094;4.326;2022-08-03T04:43:17;12.23;;;2.47;;
56363;SDS011;42261;52.094;4.326;2022-08-03T04:46:02;10.27;;;2.40;;
56363;SDS011;42261;52.094;4.326;2022-08-03T04:48:47;9.05;;;2.90;;
56363;SDS011;42261;52.094;4.326;2022-08-03T04:51:32;15.48;;;3.40;;
56363;SDS011;42261;52.094;4.326;2022-08-03T04:54:17;15.50;;;2.75;;
56363;SDS011;42261;52.094;4.326;2022-08-03T04:57:02;10.63;;;2.15;;
56363;SDS011;42261;52.094;4.326;2022-08-03T04:59:46;11.32;;;3.03;;
56363;SDS011;42261;52.094;4.326;2022-08-03T05:02:32;8.73;;;2.85;;
56363;SDS011;42261;52.094;4.326;2022-08-03T05:05:18;17.05;;;2.63;;
56363;SDS011;42261;52.094;4.326;2022-08-03T05:08:03;10.25;;;2.40;;
56363;SDS011;42261;52.094;4.326;2022-08-03T05:10:48;13.77;;;2.38;;
56363;SDS011;42261;52.094;4.326;2022-08-03T05:13:32;12.27;;;2.80;;
56363;SDS011;42261;52.094;4.326;2022-08-03T05:16:16;9.85;;;2.40;;
56363;SDS011;42261;52.094;4.326;2022-08-03T05:19:01;8.98;;;2.25;;
56363;SDS011;42261;52.094;4.326;2022-08-03T05:21:45;10.20;;;2.58;;
56363;SDS011;42261;52.094;4.326;2022-08-03T05:24:29;9.65;;;2.67;;
56363;SDS011;42261;52.094;4.326;2022-08-03T05:27:14;13.25;;;2.80;;
56363;SDS011;42261;52.094;4.326;2022-08-03T05:30:04;10.40;;;2.67;;
56363;SDS011;42261;52.094;4.326;2022-08-03T05:32:48;15.30;;;2.97;;
56363;SDS011;42261;52.094;4.326;2022-08-03T05:35:33;11.38;;;3.05;;
56363;SDS011;42261;52.094;4.326;2022-08-03T05:38:39;13.85;;;3.15;;
56363;SDS011;42261;52.094;4.326;2022-08-03T05:41:42;7.80;;;3.20;;
56363;SDS011;42261;52.094;4.326;2022-08-03T05:44:27;9.98;;;2.50;;
56363;SDS011;42261;52.094;4.326;2022-08-03T05:47:11;9.32;;;2.70;;
56363;SDS011;42261;52.094;4.326;2022-08-03T05:49:56;11.98;;;2.90;;
56363;SDS011;42261;52.094;4.326;2022-08-03T05:52:41;8.93;;;3.38;;
56363;SDS011;42261;52.094;4.326;2022-08-03T05:55:27;12.20;;;3.50;;
56363;SDS011;42261;52.094;4.326;2022-08-03T05:58:11;8.85;;;3.00;;
56363;SDS011;42261;52.094;4.326;2022-08-03T06:00:55;12.70;;;3.45;;
56363;SDS011;42261;52.094;4.326;2022-08-03T06:03:39;9.27;;;3.42;;
56363;SDS011;42261;52.094;4.326;2022-08-03T06:06:24;12.60;;;4.18;;
56363;SDS011;42261;52.094;4.326;2022-08-03T06:09:09;15.27;;;3.70;;
56363;SDS011;42261;52.094;4.326;2022-08-03T06:11:53;12.75;;;3.70;;
56363;SDS011;42261;52.094;4.326;2022-08-03T06:14:37;16.80;;;3.88;;
56363;SDS011;42261;52.094;4.326;2022-08-03T06:17:22;16.58;;;4.28;;
56363;SDS011;42261;52.094;4.326;2022-08-03T06:20:06;10.60;;;3.40;;
56363;SDS011;42261;52.094;4.326;2022-08-03T06:22:51;12.10;;;3.30;;
56363;SDS011;42261;52.094;4.326;2022-08-03T06:25:35;12.60;;;4.28;;
56363;SDS011;42261;52.094;4.326;2022-08-03T06:28:19;15.77;;;4.30;;
56363;SDS011;42261;52.094;4.326;2022-08-03T06:31:04;9.00;;;3.80;;
56363;SDS011;42261;52.094;4.326;2022-08-03T06:33:48;11.82;;;3.25;;
56363;SDS011;42261;52.094;4.326;2022-08-03T06:36:32;11.55;;;4.07;;
56363;SDS011;42261;52.094;4.326;2022-08-03T06:39:17;14.75;;;3.63;;
56363;SDS011;42261;52.094;4.326;2022-08-03T06:42:01;11.38;;;3.88;;
56363;SDS011;42261;52.094;4.326;2022-08-03T06:45:06;15.57;;;4.60;;
56363;SDS011;42261;52.094;4.326;2022-08-03T06:48:02;18.38;;;5.05;;
56363;SDS011;42261;52.094;4.326;2022-08-03T06:50:47;10.15;;;4.50;;
56363;SDS011;42261;52.094;4.326;2022-08-03T06:53:31;12.77;;;4.28;;
56363;SDS011;42261;52.094;4.326;2022-08-03T06:56:15;12.45;;;4.40;;
56363;SDS011;42261;52.094;4.326;2022-08-03T06:58:59;15.90;;;7.75;;
56363;SDS011;42261;52.094;4.326;2022-08-03T07:01:43;14.88;;;4.93;;
56363;SDS011;42261;52.094;4.326;2022-08-03T07:04:28;15.02;;;4.35;;
56363;SDS011;42261;52.094;4.326;2022-08-03T07:07:12;16.80;;;4.45;;
56363;SDS011;42261;52.094;4.326;2022-08-03T07:09:56;13.40;;;4.32;;
56363;SDS011;42261;52.094;4.326;2022-08-03T07:12:41;10.73;;;3.95;;
56363;SDS011;42261;52.094;4.326;2022-08-03T07:15:25;13.45;;;3.50;;
56363;SDS011;42261;52.094;4.326;2022-08-03T07:18:09;8.30;;;4.13;;
56363;SDS011;42261;52.094;4.326;2022-08-03T07:20:53;11.20;;;3.90;;
56363;SDS011;42261;52.094;4.326;2022-08-03T07:23:37;10.95;;;3.72;;
56363;SDS011;42261;52.094;4.326;2022-08-03T07:26:22;14.57;;;4.72;;
56363;SDS011;42261;52.094;4.326;2022-08-03T07:29:07;17.35;;;4.65;;
56363;SDS011;42261;52.094;4.326;2022-08-03T07:31:51;14.07;;;3.92;;
56363;SDS011;42261;52.094;4.326;2022-08-03T07:34:35;14.43;;;4.53;;
56363;SDS011;42261;52.094;4.326;2022-08-03T07:37:19;13.75;;;4.80;;
56363;SDS011;42261;52.094;4.326;2022-08-03T07:40:04;10.07;;;4.43;;
56363;SDS011;42261;52.094;4.326;2022-08-03T07:42:48;12.13;;;4.70;;
56363;SDS011;42261;52.094;4.326;2022-08-03T07:45:51;12.68;;;4.80;;
56363;SDS011;42261;52.094;4.326;2022-08-03T07:51:40;9.63;;;4.38;;
56363;SDS011;42261;52.094;4.326;2022-08-03T07:54:24;14.52;;;4.47;;
56363;SDS011;42261;52.094;4.326;2022-08-03T07:57:08;16.38;;;4.85;;
56363;SDS011;42261;52.094;4.326;2022-08-03T07:59:52;9.38;;;4.30;;
56363;SDS011;42261;52.094;4.326;2022-08-03T08:02:36;12.07;;;4.57;;
56363;SDS011;42261;52.094;4.326;2022-08-03T08:05:20;8.00;;;4.32;;
56363;SDS011;42261;52.094;4.326;2022-08-03T08:08:05;10.60;;;4.38;;
56363;SDS011;42261;52.094;4.326;2022-08-03T08:10:49;12.82;;;3.95;;
56363;SDS011;42261;52.094;4.326;2022-08-03T08:13:33;12.23;;;5.80;;
56363;SDS011;42261;52.094;4.326;2022-08-03T08:16:18;10.40;;;3.95;;
56363;SDS011;42261;52.094;4.326;2022-08-03T08:19:02;15.10;;;3.95;;
56363;SDS011;42261;52.094;4.326;2022-08-03T08:21:46;14.07;;;4.10;;
56363;SDS011;42261;52.094;4.326;2022-08-03T08:24:30;11.65;;;3.58;;
56363;SDS011;42261;52.094;4.326;2022-08-03T08:27:16;11.35;;;3.97;;
56363;SDS011;42261;52.094;4.326;2022-08-03T08:30:02;8.98;;;3.63;;
56363;SDS011;42261;52.094;4.326;2022-08-03T08:33:06;14.93;;;4.05;;
56363;SDS011;42261;52.094;4.326;2022-08-03T08:35:51;11.88;;;4.05;;
56363;SDS011;42261;52.094;4.326;2022-08-03T08:38:36;12.95;;;4.03;;
56363;SDS011;42261;52.094;4.326;2022-08-03T08:41:21;8.80;;;3.60;;
56363;SDS011;42261;52.094;4.326;2022-08-03T08:44:05;11.10;;;3.97;;
56363;SDS011;42261;52.094;4.326;2022-08-03T08:47:09;13.02;;;3.40;;
56363;SDS011;42261;52.094;4.326;2022-08-03T08:49:56;9.10;;;2.53;;
56363;SDS011;42261;52.094;4.326;2022-08-03T08:52:41;5.97;;;2.42;;
56363;SDS011;42261;52.094;4.326;2022-08-03T08:55:26;8.18;;;2.92;;
56363;SDS011;42261;52.094;4.326;2022-08-03T08:58:11;14.80;;;3.42;;
56363;SDS011;42261;52.094;4.326;2022-08-03T09:00:56;10.13;;;3.08;;
56363;SDS011;42261;52.094;4.326;2022-08-03T09:03:40;17.30;;;3.80;;
56363;SDS011;42261;52.094;4.326;2022-08-03T09:06:25;7.05;;;2.22;;
56363;SDS011;42261;52.094;4.326;2022-08-03T09:09:09;8.07;;;2.70;;
56363;SDS011;42261;52.094;4.326;2022-08-03T09:11:54;10.98;;;2.70;;
56363;SDS011;42261;52.094;4.326;2022-08-03T09:14:38;13.68;;;3.30;;
56363;SDS011;42261;52.094;4.326;2022-08-03T09:17:23;15.43;;;3.92;;
56363;SDS011;42261;52.094;4.326;2022-08-03T09:20:07;8.57;;;2.78;;
56363;SDS011;42261;52.094;4.326;2022-08-03T09:22:57;12.00;;;2.78;;
56363;SDS011;42261;52.094;4.326;2022-08-03T09:25:42;9.93;;;3.13;;
56363;SDS011;42261;52.094;4.326;2022-08-03T09:28:32;9.85;;;2.88;;
56363;SDS011;42261;52.094;4.326;2022-08-03T09:31:17;8.40;;;2.83;;
56363;SDS011;42261;52.094;4.326;2022-08-03T09:34:05;11.95;;;3.38;;
56363;SDS011;42261;52.094;4.326;2022-08-03T09:36:50;11.43;;;2.95;;
56363;SDS011;42261;52.094;4.326;2022-08-03T09:39:37;8.25;;;2.47;;
56363;SDS011;42261;52.094;4.326;2022-08-03T09:42:21;8.90;;;1.90;;
56363;SDS011;42261;52.094;4.326;2022-08-03T09:45:06;12.60;;;2.58;;
56363;SDS011;42261;52.094;4.326;2022-08-03T09:48:28;10.25;;;2.78;;
56363;SDS011;42261;52.094;4.326;2022-08-03T09:51:13;8.23;;;2.83;;
56363;SDS011;42261;52.094;4.326;2022-08-03T09:54:01;9.52;;;2.88;;
56363;SDS011;42261;52.094;4.326;2022-08-03T09:56:47;7.65;;;2.20;;
56363;SDS011;42261;52.094;4.326;2022-08-03T09:59:31;9.73;;;2.90;;
56363;SDS011;42261;52.094;4.326;2022-08-03T10:02:23;11.85;;;3.33;;
56363;SDS011;42261;52.094;4.326;2022-08-03T10:05:09;9.20;;;3.30;;
56363;SDS011;42261;52.094;4.326;2022-08-03T10:07:54;9.05;;;2.88;;
56363;SDS011;42261;52.094;4.326;2022-08-03T10:10:42;12.50;;;2.90;;
56363;SDS011;42261;52.094;4.326;2022-08-03T10:13:27;11.35;;;3.10;;
56363;SDS011;42261;52.094;4.326;2022-08-03T10:16:11;11.23;;;3.15;;
56363;SDS011;42261;52.094;4.326;2022-08-03T10:18:57;18.50;;;3.80;;
56363;SDS011;42261;52.094;4.326;2022-08-03T10:21:45;12.38;;;2.95;;
56363;SDS011;42261;52.094;4.326;2022-08-03T10:24:33;14.43;;;3.13;;
56363;SDS011;42261;52.094;4.326;2022-08-03T10:27:19;11.00;;;2.92;;
56363;SDS011;42261;52.094;4.326;2022-08-03T10:30:04;7.38;;;2.90;;
56363;SDS011;42261;52.094;4.326;2022-08-03T10:32:51;7.10;;;2.42;;
56363;SDS011;42261;52.094;4.326;2022-08-03T10:35:40;13.05;;;3.17;;
56363;SDS011;42261;52.094;4.326;2022-08-03T10:38:28;10.80;;;2.15;;
56363;SDS011;42261;52.094;4.326;2022-08-03T10:41:15;10.93;;;2.67;;
56363;SDS011;42261;52.094;4.326;2022-08-03T10:46:48;11.00;;;2.80;;
56363;SDS011;42261;52.094;4.326;2022-08-03T10:49:52;8.25;;;2.28;;
56363;SDS011;42261;52.094;4.326;2022-08-03T10:52:59;11.80;;;4.05;;
56363;SDS011;42261;52.094;4.326;2022-08-03T10:55:45;9.93;;;2.00;;
56363;SDS011;42261;52.094;4.326;2022-08-03T10:58:49;12.45;;;3.20;;
56363;SDS011;42261;52.094;4.326;2022-08-03T11:01:55;10.93;;;2.05;;
56363;SDS011;42261;52.094;4.326;2022-08-03T11:07:27;13.57;;;2.20;;
56363;SDS011;42261;52.094;4.326;2022-08-03T11:10:28;13.13;;;2.22;;
56363;SDS011;42261;52.094;4.326;2022-08-03T11:13:21;11.40;;;2.53;;
56363;SDS011;42261;52.094;4.326;2022-08-03T11:16:17;11.40;;;2.30;;
56363;SDS011;42261;52.094;4.326;2022-08-03T11:19:09;13.20;;;2.03;;
56363;SDS011;42261;52.094;4.326;2022-08-03T11:21:55;9.02;;;2.30;;
56363;SDS011;42261;52.094;4.326;2022-08-03T11:27:34;12.10;;;2.35;;
56363;SDS011;42261;52.094;4.326;2022-08-03T11:33:02;9.00;;;2.08;;
56363;SDS011;42261;52.094;4.326;2022-08-03T11:36:00;9.32;;;2.30;;
56363;SDS011;42261;52.094;4.326;2022-08-03T11:41:57;13.65;;;2.05;;
56363;SDS011;42261;52.094;4.326;2022-08-03T11:44:42;10.52;;;2.20;;
56363;SDS011;42261;52.094;4.326;2022-08-03T11:47:27;7.80;;;2.10;;
56363;SDS011;42261;52.094;4.326;2022-08-03T11:50:11;10.35;;;2.00;;
56363;SDS011;42261;52.094;4.326;2022-08-03T11:52:56;10.30;;;2.38;;
56363;SDS011;42261;52.094;4.326;2022-08-03T11:55:40;6.43;;;1.60;;
56363;SDS011;42261;52.094;4.326;2022-08-03T11:58:28;12.15;;;2.33;;
56363;SDS011;42261;52.094;4.326;2022-08-03T12:01:12;13.52;;;2.67;;
56363;SDS011;42261;52.094;4.326;2022-08-03T12:04:01;9.88;;;2.22;;
56363;SDS011;42261;52.094;4.326;2022-08-03T12:06:57;6.80;;;2.28;;
56363;SDS011;42261;52.094;4.326;2022-08-03T12:09:43;6.95;;;1.88;;
56363;SDS011;42261;52.094;4.326;2022-08-03T12:12:53;8.27;;;2.03;;
56363;SDS011;42261;52.094;4.326;2022-08-03T12:15:41;8.63;;;1.70;;
56363;SDS011;42261;52.094;4.326;2022-08-03T12:18:25;9.80;;;2.13;;
56363;SDS011;42261;52.094;4.326;2022-08-03T12:21:10;9.43;;;2.15;;
56363;SDS011;42261;52.094;4.326;2022-08-03T12:23:57;7.10;;;2.00;;
56363;SDS011;42261;52.094;4.326;2022-08-03T12:26:46;11.68;;;1.92;;
56363;SDS011;42261;52.094;4.326;2022-08-03T12:29:32;7.10;;;2.03;;
56363;SDS011;42261;52.094;4.326;2022-08-03T12:32:16;7.78;;;2.03;;
56363;SDS011;42261;52.094;4.326;2022-08-03T12:35:01;3.85;;;1.70;;
56363;SDS011;42261;52.094;4.326;2022-08-03T12:37:48;5.60;;;1.48;;
56363;SDS011;42261;52.094;4.326;2022-08-03T12:40:33;9.52;;;2.60;;
56363;SDS011;42261;52.094;4.326;2022-08-03T12:43:17;9.30;;;2.10;;
56363;SDS011;42261;52.094;4.326;2022-08-03T12:46:08;10.40;;;2.35;;
56363;SDS011;42261;52.094;4.326;2022-08-03T12:54:27;6.82;;;1.88;;
56363;SDS011;42261;52.094;4.326;2022-08-03T12:57:14;15.38;;;3.58;;
56363;SDS011;42261;52.094;4.326;2022-08-03T13:00:18;11.50;;;2.03;;
56363;SDS011;42261;52.094;4.326;2022-08-03T13:03:21;8.13;;;2.00;;
56363;SDS011;42261;52.094;4.326;2022-08-03T13:06:25;7.22;;;1.88;;
56363;SDS011;42261;52.094;4.326;2022-08-03T13:09:29;9.27;;;1.88;;
56363;SDS011;42261;52.094;4.326;2022-08-03T13:12:18;6.35;;;1.85;;
56363;SDS011;42261;52.094;4.326;2022-08-03T13:15:04;11.93;;;2.33;;
56363;SDS011;42261;52.094;4.326;2022-08-03T13:17:48;7.80;;;2.17;;
56363;SDS011;42261;52.094;4.326;2022-08-03T13:20:32;10.90;;;2.03;;
56363;SDS011;42261;52.094;4.326;2022-08-03T13:23:18;7.38;;;1.80;;
56363;SDS011;42261;52.094;4.326;2022-08-03T13:26:02;11.63;;;2.35;;
56363;SDS011;42261;52.094;4.326;2022-08-03T13:28:46;8.68;;;2.15;;
56363;SDS011;42261;52.094;4.326;2022-08-03T13:31:30;10.20;;;2.38;;
56363;SDS011;42261;52.094;4.326;2022-08-03T13:34:14;6.95;;;1.52;;
56363;SDS011;42261;52.094;4.326;2022-08-03T13:36:58;7.35;;;2.60;;
56363;SDS011;42261;52.094;4.326;2022-08-03T13:39:42;10.02;;;1.73;;
56363;SDS011;42261;52.094;4.326;2022-08-03T13:42:27;6.88;;;1.80;;
56363;SDS011;42261;52.094;4.326;2022-08-03T13:45:12;10.82;;;1.33;;
56363;SDS011;42261;52.094;4.326;2022-08-03T13:47:56;6.15;;;1.40;;
56363;SDS011;42261;52.094;4.326;2022-08-03T13:50:40;5.20;;;1.55;;
56363;SDS011;42261;52.094;4.326;2022-08-03T13:53:24;8.23;;;2.70;;
56363;SDS011;42261;52.094;4.326;2022-08-03T13:56:09;3.70;;;0.85;;
56363;SDS011;42261;52.094;4.326;2022-08-03T13:58:54;3.75;;;1.38;;
56363;SDS011;42261;52.094;4.326;2022-08-03T14:01:38;4.80;;;1.00;;
56363;SDS011;42261;52.094;4.326;2022-08-03T14:04:23;4.72;;;1.00;;
56363;SDS011;42261;52.094;4.326;2022-08-03T14:07:07;4.15;;;1.17;;
56363;SDS011;42261;52.094;4.326;2022-08-03T14:09:51;5.45;;;1.27;;
56363;SDS011;42261;52.094;4.326;2022-08-03T14:12:53;3.95;;;1.08;;
56363;SDS011;42261;52.094;4.326;2022-08-03T14:15:58;3.30;;;0.93;;
56363;SDS011;42261;52.094;4.326;2022-08-03T14:19:01;3.25;;;1.30;;
56363;SDS011;42261;52.094;4.326;2022-08-03T14:22:05;5.32;;;1.38;;
56363;SDS011;42261;52.094;4.326;2022-08-03T14:25:08;11.18;;;1.50;;
56363;SDS011;42261;52.094;4.326;2022-08-03T14:28:11;8.25;;;1.40;;
56363;SDS011;42261;52.094;4.326;2022-08-03T14:31:13;7.30;;;1.42;;
56363;SDS011;42261;52.094;4.326;2022-08-03T14:33:57;5.05;;;1.23;;
56363;SDS011;42261;52.094;4.326;2022-08-03T14:36:41;6.97;;;1.20;;
56363;SDS011;42261;52.094;4.326;2022-08-03T14:39:26;7.93;;;1.60;;
56363;SDS011;42261;52.094;4.326;2022-08-03T14:42:10;6.82;;;1.25;;
56363;SDS011;42261;52.094;4.326;2022-08-03T14:44:54;4.60;;;1.50;;
56363;SDS011;42261;52.094;4.326;2022-08-03T14:47:38;3.75;;;1.20;;
56363;SDS011;42261;52.094;4.326;2022-08-03T14:50:23;6.47;;;1.25;;
56363;SDS011;42261;52.094;4.326;2022-08-03T14:53:08;6.68;;;1.13;;
56363;SDS011;42261;52.094;4.326;2022-08-03T14:55:52;4.15;;;1.42;;
56363;SDS011;42261;52.094;4.326;2022-08-03T14:58:37;5.55;;;1.23;;
56363;SDS011;42261;52.094;4.326;2022-08-03T15:01:21;4.60;;;1.10;;
56363;SDS011;42261;52.094;4.326;2022-08-03T15:04:05;5.60;;;1.13;;
56363;SDS011;42261;52.094;4.326;2022-08-03T15:06:50;3.35;;;0.95;;
56363;SDS011;42261;52.094;4.326;2022-08-03T15:09:34;5.35;;;1.02;;
56363;SDS011;42261;52.094;4.326;2022-08-03T15:12:18;5.40;;;1.08;;
56363;SDS011;42261;52.094;4.326;2022-08-03T15:15:02;5.40;;;0.90;;
56363;SDS011;42261;52.094;4.326;2022-08-03T15:17:48;0.70;;;0.60;;
56363;SDS011;42261;52.094;4.326;2022-08-03T15:20:32;2.72;;;0.77;;
56363;SDS011;42261;52.094;4.326;2022-08-03T15:23:16;2.88;;;1.27;;
56363;SDS011;42261;52.094;4.326;2022-08-03T15:26:01;6.95;;;1.00;;
56363;SDS011;42261;52.094;4.326;2022-08-03T15:29:03;5.85;;;1.17;;
56363;SDS011;42261;52.094;4.326;2022-08-03T15:32:06;2.53;;;0.90;;
56363;SDS011;42261;52.094;4.326;2022-08-03T15:35:09;6.90;;;1.00;;
56363;SDS011;42261;52.094;4.326;2022-08-03T15:38:12;6.35;;;0.98;;
56363;SDS011;42261;52.094;4.326;2022-08-03T15:40:56;1.77;;;0.60;;
56363;SDS011;42261;52.094;4.326;2022-08-03T15:43:41;4.32;;;0.65;;
56363;SDS011;42261;52.094;4.326;2022-08-03T15:46:26;5.13;;;1.25;;
56363;SDS011;42261;52.094;4.326;2022-08-03T15:49:10;4.50;;;1.00;;
56363;SDS011;42261;52.094;4.326;2022-08-03T15:51:54;3.38;;;1.02;;
56363;SDS011;42261;52.094;4.326;2022-08-03T15:54:38;3.40;;;0.80;;
56363;SDS011;42261;52.094;4.326;2022-08-03T15:57:23;1.77;;;0.60;;
56363;SDS011;42261;52.094;4.326;2022-08-03T16:00:07;4.47;;;0.63;;
56363;SDS011;42261;52.094;4.326;2022-08-03T16:02:52;3.40;;;0.80;;
56363;SDS011;42261;52.094;4.326;2022-08-03T16:05:37;2.97;;;0.88;;
56363;SDS011;42261;52.094;4.326;2022-08-03T16:08:21;3.58;;;0.80;;
56363;SDS011;42261;52.094;4.326;2022-08-03T16:11:05;5.95;;;0.93;;
56363;SDS011;42261;52.094;4.326;2022-08-03T16:13:49;3.65;;;0.90;;
56363;SDS011;42261;52.094;4.326;2022-08-03T16:16:33;0.93;;;0.45;;
56363;SDS011;42261;52.094;4.326;2022-08-03T16:19:19;2.88;;;0.60;;
56363;SDS011;42261;52.094;4.326;2022-08-03T16:22:04;5.25;;;0.98;;
56363;SDS011;42261;52.094;4.326;2022-08-03T16:24:48;6.10;;;1.08;;
56363;SDS011;42261;52.094;4.326;2022-08-03T16:27:33;3.90;;;0.82;;
56363;SDS011;42261;52.094;4.326;2022-08-03T16:30:17;3.97;;;1.00;;
56363;SDS011;42261;52.094;4.326;2022-08-03T16:33:01;5.30;;;0.88;;
56363;SDS011;42261;52.094;4.326;2022-08-03T16:35:46;4.18;;;1.20;;
56363;SDS011;42261;52.094;4.326;2022-08-03T16:38:32;5.28;;;1.00;;
56363;SDS011;42261;52.094;4.326;2022-08-03T16:41:17;3.53;;;0.85;;
56363;SDS011;42261;52.094;4.326;2022-08-03T16:44:01;3.13;;;0.80;;
56363;SDS011;42261;52.094;4.326;2022-08-03T16:46:45;5.53;;;0.98;;
56363;SDS011;42261;52.094;4.326;2022-08-03T16:49:29;2.00;;;0.80;;
56363;SDS011;42261;52.094;4.326;2022-08-03T16:52:14;3.42;;;0.82;;
56363;SDS011;42261;52.094;4.326;2022-08-03T16:54:58;2.42;;;0.80;;
56363;SDS011;42261;52.094;4.326;2022-08-03T16:57:42;6.03;;;1.00;;
56363;SDS011;42261;52.094;4.326;2022-08-03T17:00:27;4.00;;;0.90;;
56363;SDS011;42261;52.094;4.326;2022-08-03T17:03:12;3.60;;;0.60;;
56363;SDS011;42261;52.094;4.326;2022-08-03T17:05:57;2.85;;;0.80;;
56363;SDS011;42261;52.094;4.326;2022-08-03T17:08:41;5.28;;;0.85;;
56363;SDS011;42261;52.094;4.326;2022-08-03T17:11:25;2.38;;;1.10;;
56363;SDS011;42261;52.094;4.326;2022-08-03T17:14:09;6.50;;;0.88;;
56363;SDS011;42261;52.094;4.326;2022-08-03T17:16:54;5.82;;;1.10;;